Коронавирус в мире

Коронавирус распространение в мире на 15.03.2020

Эпидемиологическая обстановка и распространение COVID-19 в мире

по состоянию на 08.00 (МСК) от 15.03.2020 г.

 

  • Согласно данным ежедневного отчёта Государственной Комиссии здравоохранения Китая по состоянию на 24.00 по Пекину 14.03.2020 г. (19.00 по мск) в целом в КНР зарегистрировано случаев заболевания – 81048. За сутки с 00.00 14.03.2020 по 00.00 (время Пекина) 15.03.2020 г. прирост составил 27 случаев (0,03%).
  • Случаев с летальным исходом – 3204 (прирост 10; летальность 4,0%; вне провинции Хубэй – 0,90%). Выписано 67022 человек (прирост 1373; 2%). Отслежено контактных лиц — 679759 (824 за последние сутки, прирост 0,1%), 10189 находятся под наблюдением.
  • Всего в мире по состоянию на 08.00 по мск 03.15.2020 г. из доступных источников известно о 156530 подтверждённых случаях (прирост за сутки 11844 случаев; 8,2%). В 126 странах мира вне КНР зарегистрировано 75482 случаев (за последние сутки прирост 11817; 18,6%).
  • За последние сутки стало впервые известно о зарегистрированных случаях в Мавритании (1; завоз из Европы), Эсватини (1; из США), Суринаме (1; из Нидерландов), Руанде (1; из Индии), Намибии (2; из Италии), Уругвае (4; из Италии), Гватемале (1; из Италии), на Сейшельских Островах (2; из Италии).

 

  Всего случаев Прирост за сутки, случаев Прирост за сутки, % Летальных случаев Прирост за сутки, случаев Летальность, %
Китай 81048 27 0,03% 3204 10 4,0%
Вне Китая 75482 11817 18,6% 2631 407 3,5%
Итого в мире 156530 11844 8,2% 5835 417 3,7%

Количество случаев заболевания в мире

 

Регион Дата первого случая Страна Кол-во случаев

 

За послед-ние сутки Кол-во случаев с летальным исходом Летальных исходов за последние сутки Характер передачи инфекции
Западно-Тихоокеанский регион 1. 01.12.19 Китай 81048 27 3204 10 Местная
2. 14.01.20 Япония 786 61 22 1 Местная
Круизный лайнер «Diamond Princess» 697 0 7 0 Местная
3. 19.01.20 Республика Корея 8162 76 75 3 Местная
4. 23.01.20 Вьетнам 53 9 0 0 Местная
5. 24.01.20 Сингапур 212 12 0 0 Местная
6. 25.01.20 Австралия 250 94 3 0 Местная
7. 25.01.20 Малайзия 238 80 0 0 Местная
8. 27.01.20 Камбоджа 7 2 0 0 Местная
9. 30.01.20 Филиппины 111 47 8 2 Местная
10. 28.02.20 Новая Зеландия 6 1 0 0 Местная
11. 09.03.20 Монголия 1 0 0 0 Завоз
12. 10.03.20 Бруней 40 29 0 0 Завоз
Юго-Восточная Азия 13. 12.01.20 Таиланд 82 7 1 0 Местная
14. 24.01.20 Непал 1 0 0 0 Завоз
15. 27.01.20 Шри-Ланка 10 8 0 0 Завоз
16. 30.01.20 Индия 102 29 2 1 Местная
17. 07.03.20 Мальдивы 10 2 0 0 Местная
18. 02.03.20 Индонезия 96 27 5 1 Местная
19. 06.03.20 Бутан 1 0 0 0 Завоз
20. 08.03.20 Бангладеш 3 0 0 0 Местная
Европейский регион 21. 25.01.20 Франция 4499 832 91 12 Местная
22. 28.01.20 Германия 4585 910 9 1 Местная
23. 29.01.20 Финляндия 225 116 0 0 Местная
24. 30.01.20 Италия 21157 3397 1441 175 Местная
25. 31.01.20 Великобритания 1143 342 21 11 Местная
26. 31.01.20 Испания 6391 1159 196 63 Местная
27. 31.01.20 Россия 59 14 0 0 Завоз
28. 31.01.20 Швеция 961 147 2 1 Местная
29. 04.02.20 Бельгия 689 130 4 1 Местная
30. 21.02.20 Израиль 193 62 0 0 Местная
31. 25.02.20 Австрия 655 151 1 0 Местная
32. 25.02.20 Хорватия 38 11 0 0 Местная
1. 25.02.20 Швейцария 1359 220 13 2 Местная
2. 26.02.20 Северная Македония 14 7 0 0 Завоз
3. 26.02.20 Грузия 30 5 0 0 Завоз
4. 26.02.20 Норвегия 1109 113 3 2 Местная
5. 27.02.20 Дания 836 32 1 1 Местная
6. 27.02.20 Эстония 115 74 0 0 Завоз
7. 27.02.20 Нидерланды 959 155 12 2 Местная
8. 27.02.20 Сан-Марино 80 3 5 0 Местная
9. 26.02.20 Греция 228 111 3 2 Местная
10. 26.02.20 Румыния 123 59 0 0 Местная
11. 28.02.20 Литва 8 5 0 0 Завоз
12. 28.02.20 Беларусь 27 6 0 0 Местная
13. 28.02.20 Азербайджан 15 4 1 0 Завоз
14. 28.02.20 Монако 2 0 0 0 Завоз
15. 28.02.20 Исландия 161 58 0 0 Местная
16. 29.02.20 Люксембург 51 25 1 1 Завоз
17. 01.03.20 Армения 18 14 0 0 Завоз
18. 29.02.20 Ирландия 129 59 2 1 Местная
19. 01.03.20 Чехия 189 73 0 0 Местная
20. 02.03.20 Андорра 1 0 0 0 Завоз
21. 02.03.20 Португалия 169 91 0 0 Местная
22. 02.03.20 Латвия 26 9 0 0 Завоз
23. 03.03.20 Украина 3 0 1 0 Завоз
24. 03.03.20 Лихтенштейн 4 0 0 0 Завоз
25. 04.03.20 Венгрия 30 11 0 0 Местная
26. 04.03.20 Польша 103 39 3 2 Завоз
27. 04.03.20 Словения 181 85 1 1 Местная
28. 06.03.20 Ватикан 1 0 0 0 Завоз
29. 06.03.20 Сербия 46 15 0 0 Завоз
30. 06.03.20 Словакия 44 23 0 0 Местная
31. 07.03.20 Мальта 18 6 0 0 Завоз
32. 07.03.20 Болгария 41 18 2 1 Местная
33. 07.03.20 Молдавия 12 6 0 0 Завоз
34. 05.03.20 Босния и Герцеговина 18 7 0 0 Местная
35. 10.03.20 Турция 5 3 0 0 Завоз
36. 10.03.20 Кипр 26 12 0 0 Завоз

 

1. 13.03.20 Казахстан 6 2 0 0 Завоз
2. 08.03.20 Албания 38 15 1 0 Местная
3. 21.01.20 США 2951 775 57 16 Местная
4. 26.01.20 Канада 252 135 1 0 Местная
5. 26.02.20 Бразилия 151 75 0 0 Местная
6. 28.02.20 Мексика 26 14 0 0 Завоз
7. 29.02.20 Эквадор 28 9 2 2 Местная
8. 01.03.20 Доминиканская Республика 11 6 0 0 Завоз
9. 03.03.20 Аргентина 34 3 2 1 Завоз
10. 06.03.20 Колумбия 22 13 0 0 Завоз
11. 03.03.20 Чили 61 28 0 0 Завоз
12. 06.03.20 Перу 38 16 0 0 Местная
13. 06.03.20 Коста-Рика 26 3 0 0 Завоз
14. 09.03.20 Панама 36 9 1 0 Завоз
15. 07.03.20 Парагвай 6 0 0 0 Завоз
16. 10.03.20 Боливия 10 8 0 0 Завоз
17. 10.03.20 Ямайка 8 0 0 0 Завоз
18. 11.03.20 Гондурас 2 0 0 0 Завоз
19. 12.03.20 Гайана 1 0 1 0 Завоз
20. 12.03.20 Куба 4 1 0 0 Завоз
21. 13.03.20 Венесуэла 2 0 0 0 Завоз
22. 13.03.20 Тринидад и Тобаго 2 1 0 0 Завоз
23. 14.03.20 Суринам 1 1 0 0 Завоз
24. 14.03.20 Гватемала 1 1 0 0 Завоз
25. 14.03.20 Уругвай 4 4 0 0 Завоз
26. 30.01.20 ОАЭ 85 0 0 0 Местная
27. 14.02.20 Египет 109 29 2 0 Местная
28. 19.02.20 Иран 12729 1365 611 97 Местная
29. 21.02.20 Ливан 93 25 3 0 Местная
30. 23.02.20 Кувейт 104 4 0 0 Завоз
31. 24.02.20 Бахрейн 212 15 0 0 Завоз
32. 24.02.20 Оман 19 0 0 0 Завоз
33. 24.02.20 Афганистан 11 4 0 0 Завоз
34. 24.02.20 Ирак 110 27 10 2 Завоз
35. 26.02.20 Пакистан 31 10 0 0 Завоз
1. 29.02.20 Катар 337 17 0 0 Завоз
2. 02.03.20 Иордания 1 0 0 0 Завоз
3. 02.03.20 Тунис 18 5 0 0 Завоз
4. 02.03.20 Саудовская Аравия 103 41 0 0 Завоз
5. 02.03.20 Морокко 17 11 1 0 Завоз
6. 05.03.20 Палестина 31 0 0 0 Местная
7. 25.02.20 Алжир 37 13 3 2 Местная
8. 27.02.20 Нигерия 2 0 0 0 Завоз
9. 02.03.20 Сенегал 10 0 0 0 Завоз
10. 06.03.20 Камерун 2 0 0 0 Местная
11. 05.03.20 ЮАР 38 21 0 0 Завоз
12. 10.03.20 Буркина-Фасо 2 0 0 0 Завоз
13. 10.03.20 ДР Конго 1 0 0 0 Завоз
14. 06.03.20 Того 1 0 0 0 Завоз
15. 11.03.20 Кот-д’Ивуар 1 0 0 0 Завоз
16. 13.02.20 Кения 1 0 0 0 Завоз
17. 13.02.20 Гана 3 1 0 0 Завоз
18. 13.02.20 Габон 1 0 0 0 Завоз
19. 13.02.20 Эфиопия 1 0 0 0 Завоз
20. 14.03.20 Мавритания 1 1 0 0 Завоз
21. 14.03.20 Эсватини 1 1 0 0 Завоз
22. 14.03.20 Руанда 1 1 0 0 Завоз
23. 14.03.20 Намибия 2 2 0 0 Завоз
24. 14.03.20 Сейшельские Острова 2 2 0 0 Завоз
156530 11844 5835 417

Эпидемиологические и клинические характеристики

Возбудитель – новый коронавирус SARS-CoV-2 (название присвоено Международным комитетом по таксономии вирусов 11.02.20). Природный резервуар неизвестен; вероятно, дикие животные (предполагаются летучие мыши). Источник инфекции — больной человек.

Механизмы, пути и факторы передачи – основной механизм – аспирационный (воздушно-капельный или воздушно-пылевой путь передачи). Реализуется несколько механизмов передачи: аэрогенный механизм (воздушно-капельный, воздушно-пылевой пути передачи); фекально-оральный механизм; контактный механизм передачи. Существует потенциальный риск передачи инфекции коронавируса нового типа от матери к ребенку.

Вирус способен сохранять жизнеспособность на поверхностях в течение нескольких часов, а при температуре 200С и влажности 40-50% до 5 дней (материалы пресс-конференции правительства провинции Хубей от 03.02.20).

По данным Государственной Комиссии здравоохранения КНР более 83% массовых заражений коронавирусом происходят в результате тесных контактов без средств индивидуальной защиты – среди медицинского персонала, членов семьи больного.

Инкубационный период

Менее чем у 2,5% инфицированных людей будут проявляться симптомы в течение 2,2 дней (ДИ от 1,8 до 2,9 дня) после заражения, а появление симптомов наступит в течение 11,5 дней (ДИ от 8,2 до 15,6 дня) у 97,5% инфицированных. Оценка параметра дисперсии составила 1,52 (ДИ от 1,32 до 1,72), а расчетный средний инкубационный период составил 5,5 дней. Средний период до появления лихорадки составляет 5,7 дня (ДИ от 4,9 до 6,8 дня), при этом у 2,5% людей наблюдается лихорадка в течение 2,6 дня (при ДИ от 2,1 до 3,7 дня), а у 97,5% температура поднимается в течение 12,5 дней (ДИ От 8,2 до 17,7 дней) воздействия.

Клиническая картина

Повышение температуры отмечается у 33-68 % больных, кашель: 41-52 %, отделение мокроты: 7-32 %, усталость: 5-42 %, боль в горле: 7-14 %, стеснение в груди: 3-16 %, диарея: 3-7 %, тошнота: 0-3 %, ринит: 0-3 %.

Ведущими симптомами остаются повышение температуры тела (чаще 38-39 ° С) и кашель.

Средний срок от начала симптомов до госпитализации – от 12 дней (в начале января 2020 г.) до 3 дней (в началае февраля 2020 г.), по данным ВОЗ. Также по данным ВОЗ время выздоровления для случаев с лёгким течением  составляет около 2 недель, для случаев с тяжёлым течением  — от 3 до 6 недель.

Летальные случаи ассоциированы с возрастом пациентов >60 лет, как правило, при тяжелой сопутствующей патологии. Доля больных с тяжелым клиническим течением составляет 14-20%. У детей заболевание протекает в более лёгкой форме.

В КНР зафиксированы случаи, когда у выписанных пациентов с отрицательными результатами теста на коронавирус, впоследствии тест снова показывал положительный результат. Это объясняется несовершенством тестов, возможными ошибками лаборантов и особенностями организма конкретных пациентов. При этом нельзя точно сказать, идет ли речь о рецидиве заболевания или реинфекции.

Лабораторная диагностика

В настоящее время имеется информация о разработке тест-систем для выявления РНК вируса 2019-nCoV методом ПЦР в следующих организациях:

1) ГНЦ ВБ «Вектор» Роспотребнадзора (Россия)

2) CDC КНР

3) CDC США

4) Университет Гонконга

5) «Altona Diagnostics» (Германия)

6) «BGI Group» (КНР)

7) Гонконгский Университет науки и технологий

8) «Novacyt/Primerdesign» (Великобритания/Франция)

9) «Thermo Fisher Scientific» (США)

10) «Qiagen» (Германия)

11) «Biomeme» (США)

12) «TIB Molbiol» (Германия)

13) «Amoy Diagnostics» (КНР).

Согласно сообщению ИА Sina (КНР) от 08.02.20 г., китайские врачи отмечают возможность высокого числа ложноотрицательных результатов при исследовании на новый коронавирус. По оценке академика Wang Chen положительный результат при лабораторном исследовании регистрируется только у 30-50% от истинного числа заболевших. Это обусловлено тем, что вероятность обнаружения вируса выше всего при исследовании смывов с нижних дыхательных путей, меньше при исследовании мокроты и ниже всего при исследовании мазков с глотки. Также в настоящее время из-за повышенного спроса установлен «особый порядок подтверждения качества» для диагностических наборов, что сказывается на их чувствительности.

Лечение

Этиотропная терапия – отсутствует, используются симптоматическая терапия и препараты против РНК-содержащих вирусов.

Изучаются возможности применения противовирусных средств широкого действия, среди которых Ремдесивир, ингибиторы РНК-полимеразы, Лопинавир и Ритонавир и Интерферон бета.

Министерство здравоохранения  РФ в качестве этиотропной терапии рекомендовало использовать препараты: рибавирин, рекомбинантный интерферон бета-1b и лопинавир/ритонавир.

 

Оставить комментарий

Ваш адрес email не будет опубликован. Обязательные поля помечены *